createdAt,value
2018-08-08T00:00:20.026Z,74.37
2018-08-08T00:02:48.947Z,72.73
2018-08-08T00:05:17.926Z,76.83
2018-08-08T00:07:46.684Z,76.87
2018-08-08T00:10:15.359Z,73.90
2018-08-08T00:12:44.424Z,76.57
2018-08-08T00:15:13.885Z,68.73
2018-08-08T00:17:44.023Z,77.40
2018-08-08T00:20:12.954Z,74.40
2018-08-08T00:22:41.842Z,73.13
2018-08-08T00:25:12.833Z,74.10
2018-08-08T00:27:42.222Z,76.37
2018-08-08T00:30:11.940Z,77.20
2018-08-08T00:32:41.276Z,74.83
2018-08-08T00:35:09.970Z,80.60
2018-08-08T00:37:38.831Z,76.83
2018-08-08T00:40:10.171Z,72.40
2018-08-08T00:42:39.270Z,78.20
2018-08-08T00:45:10.148Z,65.20
2018-08-08T00:47:39.382Z,76.53
2018-08-08T00:50:09.641Z,75.37
2018-08-08T00:52:39.086Z,76.33
2018-08-08T00:55:08.211Z,74.17
2018-08-08T00:57:37.077Z,80.40
2018-08-08T01:00:06.944Z,79.23
2018-08-08T01:02:36.211Z,82.80
2018-08-08T01:05:06.950Z,69.77
2018-08-08T01:07:35.707Z,73.27
2018-08-08T01:10:05.145Z,76.53
2018-08-08T01:12:34.012Z,73.30
2018-08-08T01:15:03.275Z,79.57
2018-08-08T01:17:32.103Z,76.47
2018-08-08T01:20:00.721Z,82.43
2018-08-08T01:22:29.563Z,77.85
2018-08-08T01:24:58.322Z,74.32
2018-08-08T01:27:26.952Z,73.52
2018-08-08T01:29:55.547Z,78.93
2018-08-08T01:32:24.213Z,77.90
2018-08-08T01:34:52.805Z,72.80
2018-08-08T01:37:21.671Z,72.17
2018-08-08T01:39:50.282Z,72.97
2018-08-08T01:42:18.849Z,76.60
2018-08-08T01:44:47.655Z,76.75
2018-08-08T01:47:16.177Z,76.17
2018-08-08T01:49:44.735Z,65.25
2018-08-08T01:52:13.362Z,76.67
2018-08-08T01:54:42.151Z,77.77
2018-08-08T01:57:10.898Z,77.77
2018-08-08T01:59:39.621Z,74.07
2018-08-08T02:02:08.434Z,75.28
2018-08-08T02:04:37.124Z,77.62
2018-08-08T02:07:06.195Z,75.00
2018-08-08T02:09:35.079Z,74.80
2018-08-08T02:12:03.868Z,72.65
2018-08-08T02:14:32.445Z,76.70
2018-08-08T02:17:01.036Z,77.65
2018-08-08T02:19:29.786Z,74.87
2018-08-08T02:21:58.356Z,74.93
2018-08-08T02:24:27.106Z,77.33
2018-08-08T02:26:55.855Z,74.30
2018-08-08T02:29:24.773Z,76.97
2018-08-08T02:31:53.399Z,67.47
2018-08-08T02:34:22.210Z,61.90
2018-08-08T02:36:51.011Z,73.70
2018-08-08T02:39:19.700Z,79.20
2018-08-08T02:41:48.308Z,76.77
2018-08-08T02:44:17.110Z,79.10
2018-08-08T02:46:45.698Z,73.70
2018-08-08T02:49:14.251Z,74.97
2018-08-08T02:51:42.845Z,77.80
2018-08-08T02:54:11.612Z,73.22
2018-08-08T02:56:40.298Z,75.52
2018-08-08T02:59:08.931Z,76.85
2018-08-08T03:01:37.650Z,81.45
2018-08-08T03:04:06.398Z,79.85
2018-08-08T03:06:34.968Z,78.72
2018-08-08T03:09:04.586Z,78.78
2018-08-08T03:11:33.146Z,77.82
2018-08-08T03:14:01.914Z,74.87
2018-08-08T03:16:30.677Z,77.97
2018-08-08T03:18:59.411Z,74.15
2018-08-08T03:21:28.126Z,69.10
2018-08-08T03:23:56.888Z,75.20
2018-08-08T03:26:25.583Z,78.13
2018-08-08T03:28:54.134Z,77.93
2018-08-08T03:31:22.834Z,80.17
2018-08-08T03:33:51.758Z,77.57
2018-08-08T03:36:20.478Z,79.47
2018-08-08T03:38:49.168Z,75.00
2018-08-08T03:41:17.882Z,76.50
2018-08-08T03:43:46.691Z,75.30
2018-08-08T03:46:15.259Z,79.80
2018-08-08T03:48:44.164Z,75.80
2018-08-08T03:51:12.791Z,78.93
2018-08-08T03:53:41.470Z,80.20
2018-08-08T03:56:10.111Z,80.10
2018-08-08T03:58:38.715Z,77.23
2018-08-08T04:01:07.404Z,76.50
2018-08-08T04:03:36.113Z,81.67
2018-08-08T04:06:04.720Z,73.67
2018-08-08T04:08:33.507Z,75.40
2018-08-08T04:11:03.102Z,73.60
2018-08-08T04:13:32.052Z,74.27
2018-08-08T04:16:01.784Z,72.05
2018-08-08T04:18:30.425Z,75.20
2018-08-08T04:20:59.305Z,73.47
2018-08-08T04:23:29.256Z,74.87
2018-08-08T04:25:57.899Z,75.70
2018-08-08T04:28:26.699Z,71.73
2018-08-08T04:30:55.244Z,72.15
2018-08-08T04:33:23.906Z,73.87
2018-08-08T04:35:55.031Z,75.67
2018-08-08T04:38:23.635Z,76.72
2018-08-08T04:40:52.221Z,75.67
2018-08-08T04:43:20.823Z,74.60
2018-08-08T04:45:49.439Z,74.00
2018-08-08T04:48:18.195Z,76.20
2018-08-08T04:50:46.862Z,72.60
2018-08-08T04:53:15.633Z,75.27
2018-08-08T04:55:44.360Z,71.50
2018-08-08T04:58:13.051Z,74.93
2018-08-08T05:00:42.442Z,74.00
2018-08-08T05:03:11.081Z,75.60
2018-08-08T05:05:39.700Z,74.07
2018-08-08T05:08:08.410Z,70.50
2018-08-08T05:10:37.221Z,77.30
2018-08-08T05:13:05.797Z,72.63
2018-08-08T05:15:34.614Z,76.23
2018-08-08T05:18:03.261Z,77.10
2018-08-08T05:20:32.155Z,71.80
2018-08-08T05:23:00.680Z,74.50
2018-08-08T05:25:29.394Z,75.73
2018-08-08T05:27:58.255Z,76.57
2018-08-08T05:30:27.022Z,71.67
2018-08-08T05:32:55.666Z,77.23
2018-08-08T05:35:24.259Z,70.57
2018-08-08T05:37:53.165Z,75.40
2018-08-08T05:40:23.588Z,72.37
2018-08-08T05:42:53.585Z,73.57
2018-08-08T05:45:23.547Z,74.60
2018-08-08T05:47:54.835Z,71.23
2018-08-08T05:50:23.626Z,73.70
2018-08-08T05:52:52.274Z,75.10
2018-08-08T05:55:21.617Z,76.10
2018-08-08T05:57:51.004Z,75.23
2018-08-08T06:00:28.498Z,70.87
2018-08-08T06:02:57.282Z,71.60
2018-08-08T06:05:26.123Z,71.90
2018-08-08T06:07:55.989Z,68.37
2018-08-08T06:10:24.790Z,77.60
2018-08-08T06:12:53.624Z,73.97
2018-08-08T06:15:22.360Z,75.03
2018-08-08T06:17:51.291Z,73.07
2018-08-08T06:20:21.155Z,71.77
2018-08-08T06:22:50.251Z,66.13
2018-08-08T06:25:18.995Z,67.43
2018-08-08T06:27:47.762Z,69.60
2018-08-08T06:30:19.646Z,67.90
2018-08-08T06:32:48.920Z,71.57
2018-08-08T06:35:19.703Z,65.97
2018-08-08T06:37:48.394Z,73.00
2018-08-08T06:40:17.050Z,71.87
2018-08-08T06:42:46.375Z,68.20
2018-08-08T06:45:21.869Z,67.73
2018-08-08T06:47:50.632Z,67.50
2018-08-08T06:50:19.486Z,70.50
2018-08-08T06:52:48.183Z,67.47
2018-08-08T06:55:17.691Z,69.73
2018-08-08T06:57:46.708Z,69.07
2018-08-08T07:00:30.757Z,71.80
2018-08-08T07:02:59.600Z,73.73
2018-08-08T07:05:28.253Z,65.23
2018-08-08T07:07:57.920Z,73.97
2018-08-08T07:10:26.965Z,70.30
2018-08-08T07:12:55.711Z,70.93
2018-08-08T07:15:24.434Z,73.93
2018-08-08T07:17:53.068Z,72.17
2018-08-08T07:20:21.686Z,70.67
2018-08-08T07:22:50.531Z,71.57
2018-08-08T07:25:19.752Z,65.03
2018-08-08T07:27:48.823Z,70.87
2018-08-08T07:30:19.011Z,63.73
2018-08-08T07:32:48.154Z,65.90
2018-08-08T07:35:16.740Z,67.93
2018-08-08T07:37:46.377Z,72.50
2018-08-08T07:40:16.471Z,74.72
2018-08-08T07:42:45.394Z,76.90
2018-08-08T07:45:17.626Z,72.90
2018-08-08T07:47:46.481Z,72.27
2018-08-08T07:50:15.264Z,75.57
2018-08-08T07:52:44.811Z,75.60
2018-08-08T07:55:14.319Z,60.58
2018-08-08T07:57:43.710Z,77.77
2018-08-08T08:00:20.095Z,75.63
2018-08-08T08:02:49.400Z,75.32
2018-08-08T08:05:18.427Z,77.50
2018-08-08T08:07:47.971Z,71.90
2018-08-08T08:10:16.519Z,73.10
2018-08-08T08:12:45.124Z,77.00
2018-08-08T08:15:14.905Z,75.07
2018-08-08T08:17:44.004Z,74.33
2018-08-08T08:20:14.361Z,75.30
2018-08-08T08:22:44.009Z,81.67
2018-08-08T08:25:12.981Z,73.07
2018-08-08T08:27:41.931Z,74.80
2018-08-08T08:30:14.127Z,77.43
2018-08-08T08:32:44.001Z,76.13
2018-08-08T08:35:12.823Z,74.00
2018-08-08T08:37:41.707Z,75.83
2018-08-08T08:40:11.218Z,74.17
2018-08-08T08:42:40.408Z,75.07
2018-08-08T08:45:09.375Z,73.83
2018-08-08T08:47:38.139Z,75.73
2018-08-08T08:50:07.483Z,78.13
2018-08-08T08:52:36.371Z,73.77
2018-08-08T08:55:05.901Z,73.77
2018-08-08T08:57:34.784Z,74.93
2018-08-08T09:00:03.675Z,72.57
2018-08-08T09:02:32.267Z,75.50
2018-08-08T09:05:00.889Z,74.70
2018-08-08T09:07:29.807Z,73.90
2018-08-08T09:09:58.572Z,73.40
2018-08-08T09:12:27.164Z,75.03
2018-08-08T09:14:55.960Z,73.20
2018-08-08T09:17:24.746Z,74.27
2018-08-08T09:19:54.440Z,77.67
2018-08-08T09:22:23.329Z,77.43
2018-08-08T09:24:52.005Z,77.13
2018-08-08T09:27:20.722Z,78.40
2018-08-08T09:29:54.802Z,82.27
2018-08-08T09:32:23.897Z,77.13
2018-08-08T09:34:52.528Z,76.23
2018-08-08T09:37:21.276Z,75.73
2018-08-08T09:39:49.907Z,75.60
2018-08-08T09:42:18.514Z,78.17
2018-08-08T09:44:47.159Z,77.60
2018-08-08T09:47:15.833Z,73.90
2018-08-08T09:49:44.577Z,77.40
2018-08-08T09:52:13.397Z,75.40
2018-08-08T09:54:41.998Z,76.53
2018-08-08T09:57:10.791Z,75.13
2018-08-08T09:59:39.930Z,71.00
2018-08-08T10:02:14.009Z,76.63
2018-08-08T10:04:42.916Z,74.50
2018-08-08T10:07:11.973Z,72.77
2018-08-08T10:09:40.584Z,77.50
2018-08-08T10:12:09.496Z,78.60
2018-08-08T10:14:38.356Z,75.87
2018-08-08T10:17:07.100Z,73.90
2018-08-08T10:19:35.843Z,68.07
2018-08-08T10:22:04.473Z,74.43
2018-08-08T10:24:33.116Z,73.57
2018-08-08T10:27:01.809Z,73.77
2018-08-08T10:29:30.353Z,72.70
2018-08-08T10:31:59.091Z,68.80
2018-08-08T10:34:27.797Z,73.40
2018-08-08T10:36:56.470Z,76.23
2018-08-08T10:39:25.282Z,71.73
2018-08-08T10:41:53.960Z,73.23
2018-08-08T10:44:22.666Z,77.10
2018-08-08T10:46:51.301Z,72.40
2018-08-08T10:49:19.885Z,72.00
2018-08-08T10:51:48.607Z,74.03
2018-08-08T10:54:17.312Z,73.97
2018-08-08T10:56:46.089Z,76.87
2018-08-08T10:59:14.835Z,73.60
2018-08-08T11:01:43.470Z,72.97
2018-08-08T11:04:12.318Z,79.77
2018-08-08T11:06:40.982Z,78.17
2018-08-08T11:09:10.190Z,76.90
2018-08-08T11:11:38.987Z,75.40
2018-08-08T11:14:07.614Z,70.53
2018-08-08T11:16:36.302Z,74.30
2018-08-08T11:19:05.028Z,79.73
2018-08-08T11:21:33.789Z,75.27
2018-08-08T11:24:02.640Z,76.50
2018-08-08T11:26:31.891Z,77.33
2018-08-08T11:29:00.730Z,77.93
2018-08-08T11:31:29.426Z,75.90
2018-08-08T11:33:58.202Z,76.50
2018-08-08T11:36:26.913Z,75.93
2018-08-08T11:38:55.861Z,76.90
2018-08-08T11:41:24.557Z,79.07
2018-08-08T11:43:53.273Z,79.83
2018-08-08T11:46:22.489Z,71.10
2018-08-08T11:48:51.431Z,81.00
2018-08-08T11:51:20.124Z,78.10
2018-08-08T11:53:48.757Z,80.30
2018-08-08T11:56:17.662Z,81.73
2018-08-08T11:58:46.316Z,78.03
2018-08-08T12:01:15.085Z,82.23
2018-08-08T12:03:43.876Z,75.60
2018-08-08T12:06:12.626Z,76.70
2018-08-08T12:08:41.376Z,74.77
2018-08-08T12:11:10.215Z,79.47
2018-08-08T12:13:39.010Z,79.70
2018-08-08T12:16:08.044Z,79.80
2018-08-08T12:18:36.758Z,81.63
2018-08-08T12:21:05.843Z,80.43
2018-08-08T12:23:34.479Z,78.97
2018-08-08T12:26:03.452Z,73.07
2018-08-08T12:28:32.041Z,78.87
2018-08-08T12:31:00.814Z,82.80
2018-08-08T12:33:29.515Z,83.30
2018-08-08T12:35:58.279Z,76.50
2018-08-08T12:38:26.915Z,79.37
2018-08-08T12:40:55.708Z,76.07
2018-08-08T12:43:24.446Z,82.60
2018-08-08T12:45:53.179Z,80.87
2018-08-08T12:48:21.809Z,83.67
2018-08-08T12:50:50.570Z,77.73
2018-08-08T12:53:19.383Z,77.23
2018-08-08T12:55:48.023Z,81.80
2018-08-08T12:58:16.851Z,80.13
2018-08-08T13:00:45.788Z,82.20
2018-08-08T13:03:14.518Z,81.00
2018-08-08T13:05:43.285Z,81.17
2018-08-08T13:08:12.300Z,81.23
2018-08-08T13:10:41.151Z,83.03
2018-08-08T13:13:10.312Z,81.30
2018-08-08T13:15:38.931Z,83.40
2018-08-08T13:18:08.096Z,80.60
2018-08-08T13:20:36.747Z,83.90
2018-08-08T13:23:05.482Z,79.33
2018-08-08T13:25:34.289Z,80.90
2018-08-08T13:28:03.057Z,86.87
2018-08-08T13:30:31.849Z,80.40
2018-08-08T13:33:00.557Z,81.90
2018-08-08T13:35:29.370Z,77.80
2018-08-08T13:37:58.031Z,80.07
2018-08-08T13:40:26.807Z,79.07
2018-08-08T13:42:55.792Z,78.57
2018-08-08T13:45:24.489Z,79.03
2018-08-08T13:47:53.239Z,81.83
2018-08-08T13:50:22.065Z,80.57
2018-08-08T13:52:50.785Z,80.00
2018-08-08T13:55:19.483Z,72.60
2018-08-08T13:57:49.339Z,77.57
2018-08-08T14:00:18.128Z,76.50
2018-08-08T14:02:46.783Z,77.90
2018-08-08T14:05:15.750Z,81.00
2018-08-08T14:07:44.587Z,78.00
2018-08-08T14:10:13.438Z,78.13
2018-08-08T14:12:42.075Z,78.10
2018-08-08T14:15:10.671Z,80.53
2018-08-08T14:17:39.399Z,79.70
2018-08-08T14:20:09.636Z,81.07
2018-08-08T14:22:38.651Z,78.27
2018-08-08T14:25:07.893Z,80.27
2018-08-08T14:27:36.731Z,78.80
2018-08-08T14:30:06.201Z,78.23
2018-08-08T14:32:35.294Z,77.80
2018-08-08T14:35:04.244Z,79.63
2018-08-08T14:37:32.867Z,76.03
2018-08-08T14:40:01.700Z,76.00
2018-08-08T14:42:30.927Z,80.47
2018-08-08T14:44:59.864Z,78.00
2018-08-08T14:47:28.499Z,78.60
2018-08-08T14:49:57.159Z,80.90
2018-08-08T14:52:25.915Z,79.97
2018-08-08T14:54:54.787Z,78.10
2018-08-08T14:57:23.429Z,77.60
2018-08-08T14:59:52.355Z,78.10
2018-08-08T15:02:21.563Z,83.33
2018-08-08T15:04:50.131Z,78.07
2018-08-08T15:07:18.717Z,80.10
2018-08-08T15:09:47.663Z,79.63
2018-08-08T15:12:16.489Z,77.13
2018-08-08T15:14:45.331Z,77.03
2018-08-08T15:17:14.073Z,72.73
2018-08-08T15:19:42.767Z,78.80
2018-08-08T15:22:11.608Z,79.10
2018-08-08T15:24:40.195Z,80.60
2018-08-08T15:27:08.780Z,78.30
2018-08-08T15:29:37.398Z,70.73
2018-08-08T15:32:06.348Z,77.13
2018-08-08T15:34:35.461Z,74.23
2018-08-08T15:37:04.296Z,77.03
2018-08-08T15:39:32.908Z,78.97
2018-08-08T15:42:01.666Z,76.10
2018-08-08T15:44:30.653Z,73.73
2018-08-08T15:46:59.509Z,76.70
2018-08-08T15:49:28.153Z,77.53
2018-08-08T15:51:56.972Z,77.67
2018-08-08T15:54:25.582Z,77.80
2018-08-08T15:56:54.382Z,76.87
2018-08-08T15:59:22.981Z,74.97
2018-08-08T16:01:51.817Z,81.27
2018-08-08T16:04:20.477Z,79.23
2018-08-08T16:06:49.094Z,78.87
2018-08-08T16:09:17.743Z,76.07
2018-08-08T16:11:46.547Z,79.90
2018-08-08T16:14:15.398Z,74.60
2018-08-08T16:16:44.183Z,75.77
2018-08-08T16:19:12.888Z,71.00
2018-08-08T16:21:42.460Z,74.97
2018-08-08T16:24:11.151Z,79.70
2018-08-08T16:26:39.807Z,77.60
2018-08-08T16:29:08.432Z,82.50
2018-08-08T16:31:37.147Z,81.50
2018-08-08T16:34:06.123Z,77.03
2018-08-08T16:36:34.897Z,74.90
2018-08-08T16:39:05.663Z,70.87
2018-08-08T16:41:34.262Z,75.70
2018-08-08T16:44:03.119Z,75.40
2018-08-08T16:46:32.160Z,74.70
2018-08-08T16:49:00.843Z,70.27
2018-08-08T16:51:29.987Z,73.80
2018-08-08T16:53:59.150Z,74.27
2018-08-08T16:56:28.248Z,75.67
2018-08-08T16:58:57.088Z,75.97
2018-08-08T17:01:25.887Z,77.60
2018-08-08T17:03:54.694Z,77.17
2018-08-08T17:06:23.472Z,78.10
2018-08-08T17:08:52.137Z,78.30
2018-08-08T17:11:20.886Z,80.63
2018-08-08T17:13:50.693Z,78.70
2018-08-08T17:16:19.525Z,80.13
2018-08-08T17:18:48.206Z,78.90
2018-08-08T17:21:17.583Z,74.33
2018-08-08T17:23:46.174Z,76.93
2018-08-08T17:26:15.021Z,72.27
2018-08-08T17:28:43.643Z,78.80
2018-08-08T17:31:12.523Z,73.10
2018-08-08T17:33:41.239Z,77.23
2018-08-08T17:36:10.011Z,71.50
2018-08-08T17:38:38.660Z,67.97
2018-08-08T17:41:07.743Z,69.83
2018-08-08T17:43:36.794Z,69.87
2018-08-08T17:46:05.317Z,74.27
2018-08-08T17:48:33.908Z,71.80
2018-08-08T17:51:02.619Z,71.23
2018-08-08T17:53:31.224Z,71.30
2018-08-08T17:56:00.341Z,69.10
2018-08-08T17:58:29.281Z,69.53
2018-08-08T18:00:58.184Z,70.50
2018-08-08T18:03:27.157Z,70.63
2018-08-08T18:05:55.865Z,70.63
2018-08-08T18:08:24.808Z,63.77
2018-08-08T18:10:53.680Z,66.43
2018-08-08T18:13:22.366Z,67.17
2018-08-08T18:15:51.069Z,65.90
2018-08-08T18:18:19.742Z,66.70
2018-08-08T18:20:48.447Z,64.00
2018-08-08T18:23:17.200Z,70.27
2018-08-08T18:25:45.879Z,75.27
2018-08-08T18:28:14.645Z,70.63
2018-08-08T18:30:43.361Z,72.53
2018-08-08T18:33:12.067Z,66.00
2018-08-08T18:35:40.728Z,71.00
2018-08-08T18:38:09.693Z,70.40
2018-08-08T18:40:38.452Z,66.90
2018-08-08T18:43:08.114Z,69.93
2018-08-08T18:45:36.783Z,68.13
2018-08-08T18:48:05.587Z,65.57
2018-08-08T18:50:35.214Z,67.43
2018-08-08T18:53:03.900Z,64.87
2018-08-08T18:55:32.825Z,67.47
2018-08-08T18:58:01.509Z,69.53
2018-08-08T19:00:30.141Z,68.17
2018-08-08T19:02:59.021Z,67.33
2018-08-08T19:05:27.774Z,63.97
2018-08-08T19:07:56.468Z,65.00
2018-08-08T19:10:25.361Z,66.00
2018-08-08T19:12:54.405Z,68.50
2018-08-08T19:15:23.422Z,65.63
2018-08-08T19:17:52.223Z,66.63
2018-08-08T19:20:20.929Z,65.70
2018-08-08T19:22:49.852Z,74.07
2018-08-08T19:25:18.604Z,71.40
2018-08-08T19:27:47.944Z,65.63
2018-08-08T19:30:16.919Z,63.63
2018-08-08T19:32:45.546Z,64.13
2018-08-08T19:35:14.432Z,73.80
2018-08-08T19:37:43.369Z,66.03
2018-08-08T19:40:12.086Z,64.60
2018-08-08T19:42:41.040Z,63.60
2018-08-08T19:45:09.873Z,62.73
2018-08-08T19:47:38.467Z,65.23
2018-08-08T19:50:07.703Z,62.77
2018-08-08T19:52:36.553Z,63.80
2018-08-08T19:55:05.785Z,64.67
2018-08-08T19:57:34.665Z,64.13
2018-08-08T20:00:03.475Z,62.60
2018-08-08T20:02:32.379Z,61.27
2018-08-08T20:05:01.422Z,61.80
2018-08-08T20:07:30.121Z,63.37
2018-08-08T20:09:59.072Z,61.10
2018-08-08T20:12:28.043Z,65.33
2018-08-08T20:14:56.789Z,61.80
2018-08-08T20:17:25.644Z,61.37
2018-08-08T20:19:54.726Z,62.37
2018-08-08T20:22:23.581Z,61.53
2018-08-08T20:24:52.628Z,62.10
2018-08-08T20:27:21.539Z,60.50
2018-08-08T20:29:50.551Z,62.55
2018-08-08T20:32:19.526Z,61.50
2018-08-08T20:34:48.560Z,61.68
2018-08-08T20:37:17.490Z,64.77
2018-08-08T20:39:46.371Z,60.98
2018-08-08T20:42:15.259Z,60.52
2018-08-08T20:44:44.282Z,64.97
2018-08-08T20:47:12.878Z,63.60
2018-08-08T20:49:41.594Z,67.30
2018-08-08T20:52:10.519Z,64.00
2018-08-08T20:54:39.407Z,63.50
2018-08-08T20:57:08.262Z,64.45
2018-08-08T20:59:37.015Z,60.50
2018-08-08T21:02:05.767Z,58.55
2018-08-08T21:04:34.458Z,60.60
2018-08-08T21:07:03.189Z,62.85
2018-08-08T21:09:32.116Z,58.42
2018-08-08T21:12:01.004Z,57.55
2018-08-08T21:14:30.274Z,54.30
2018-08-08T21:16:59.225Z,53.23
2018-08-08T21:19:28.115Z,55.17
2018-08-08T21:21:56.748Z,51.10
2018-08-08T21:24:25.558Z,53.42
2018-08-08T21:26:54.518Z,51.85
2018-08-08T21:29:23.081Z,53.50
2018-08-08T21:31:51.711Z,48.83
2018-08-08T21:34:20.455Z,50.33
2018-08-08T21:36:49.182Z,43.92
2018-08-08T21:39:17.915Z,47.10
2018-08-08T21:41:46.951Z,50.78
2018-08-08T21:44:15.507Z,45.05
2018-08-08T21:46:44.280Z,43.80
2018-08-08T21:49:12.988Z,46.30
2018-08-08T21:51:41.811Z,51.45
2018-08-08T21:54:21.821Z,51.40
2018-08-08T21:57:01.721Z,50.85
2018-08-08T21:59:41.613Z,46.30
2018-08-08T22:02:21.931Z,42.48
2018-08-08T22:05:02.317Z,40.80
2018-08-08T22:07:42.824Z,40.88
2018-08-08T22:10:22.612Z,40.23
2018-08-08T22:13:02.640Z,39.88
2018-08-08T22:15:42.426Z,36.28
2018-08-08T22:18:22.263Z,37.83
2018-08-08T22:20:50.861Z,36.03
2018-08-08T22:23:19.538Z,34.73
2018-08-08T22:25:48.148Z,34.35
2018-08-08T22:28:16.891Z,32.67
2018-08-08T22:30:45.637Z,30.77
2018-08-08T22:33:14.711Z,31.55
2018-08-08T22:35:43.330Z,32.83
2018-08-08T22:38:12.035Z,34.60
2018-08-08T22:40:40.911Z,31.85
2018-08-08T22:43:09.710Z,32.58
2018-08-08T22:45:38.312Z,30.20
2018-08-08T22:48:07.958Z,29.87
2018-08-08T22:50:37.385Z,29.12
2018-08-08T22:53:06.108Z,27.17
2018-08-08T22:55:34.682Z,27.77
2018-08-08T22:58:03.359Z,28.80
2018-08-08T23:00:32.243Z,27.87
2018-08-08T23:03:00.948Z,29.77
2018-08-08T23:05:29.903Z,26.05
2018-08-08T23:07:58.439Z,24.25
2018-08-08T23:10:27.013Z,26.37
2018-08-08T23:12:55.816Z,25.60
2018-08-08T23:15:24.483Z,23.22
2018-08-08T23:17:53.204Z,25.23
2018-08-08T23:20:21.845Z,25.40
2018-08-08T23:22:54.672Z,27.30
2018-08-08T23:25:23.553Z,23.10
2018-08-08T23:27:52.382Z,19.98
2018-08-08T23:30:21.063Z,17.48
2018-08-08T23:32:49.687Z,17.73
2018-08-08T23:35:18.234Z,14.73
2018-08-08T23:37:47.017Z,15.65
2018-08-08T23:40:15.600Z,10.50
2018-08-08T23:42:44.206Z,5.10
2018-08-08T23:45:12.819Z,5.45
2018-08-08T23:47:41.599Z,12.30
2018-08-08T23:50:10.423Z,13.68
2018-08-08T23:52:39.009Z,18.35
2018-08-08T23:55:08.010Z,14.93
2018-08-08T23:57:36.660Z,15.55
